Time;durP1;ratioP1;P1;durP2;ratioP2;P2;SDS_P1;SDS_P2;PMS_P1;PMS_P2;Temp;Humidity;BMP_temperature;BMP_pressure;BME280_temperature;BME280_humidity;BME280_pressure;Samples;Min_cycle;Max_cycle;Signal;HPM_P1;HPM_P2
2021/05/07 00:00:43;;;;;;;3.45;1.02;;;;;;;;;;2089177;28;20024;-65
2021/05/07 00:01:43;;;;;;;2.17;1.20;;;;;;;;;;2089383;28;20498;-66
2021/05/07 00:02:44;;;;;;;1.45;0.80;;;;;;;;;;2089454;28;20119;-65
2021/05/07 00:03:44;;;;;;;3.17;1.00;;;;;;;;;;2089692;28;20507;-65
2021/05/07 00:04:45;;;;;;;2.45;1.00;;;;;;;;;;2089685;28;20029;-65
2021/05/07 00:05:53;;;;;;;1.95;0.93;;;;;;;;;;2089844;28;20037;-65
2021/05/07 00:06:53;;;;;;;2.97;0.90;;;;;;;;;;2089760;28;20059;-65
2021/05/07 00:07:54;;;;;;;2.53;1.00;;;;;;;;;;2089485;28;20033;-66
2021/05/07 00:08:54;;;;;;;2.00;0.95;;;;;;;;;;2089371;28;20112;-65
2021/05/07 00:09:54;;;;;;;3.08;1.00;;;;;;;;;;2089856;28;20531;-65
2021/05/07 00:10:55;;;;;;;3.47;1.20;;;;;;;;;;2089705;28;20400;-65
2021/05/07 00:11:57;;;;;;;2.30;0.93;;;;;;;;;;2089161;28;20048;-65
2021/05/07 00:12:57;;;;;;;2.08;1.10;;;;;;;;;;2089237;28;20079;-65
2021/05/07 00:13:57;;;;;;;3.25;1.00;;;;;;;;;;2097317;28;20020;-65
2021/05/07 00:14:58;;;;;;;2.53;1.10;;;;;;;;;;2089966;28;20052;-66
2021/05/07 00:15:58;;;;;;;2.83;0.90;;;;;;;;;;2089109;28;20468;-65
2021/05/07 00:16:59;;;;;;;3.15;1.00;;;;;;;;;;2089736;28;20476;-65
2021/05/07 00:17:59;;;;;;;2.65;1.10;;;;;;;;;;2089298;28;20047;-65
2021/05/07 00:19:00;;;;;;;2.17;1.10;;;;;;;;;;2089748;28;20476;-65
2021/05/07 00:20:00;;;;;;;1.55;1.00;;;;;;;;;;2089296;28;20070;-65
2021/05/07 00:21:01;;;;;;;1.98;1.10;;;;;;;;;;2089798;28;20084;-65
2021/05/07 00:22:01;;;;;;;2.45;0.85;;;;;;;;;;2089563;28;20487;-65
2021/05/07 00:23:01;;;;;;;2.17;1.00;;;;;;;;;;2089642;28;20108;-65
2021/05/07 00:24:02;;;;;;;1.88;0.90;;;;;;;;;;2088656;28;20047;-65
2021/05/07 00:25:02;;;;;;;3.38;0.90;;;;;;;;;;2089112;28;20036;-65
2021/05/07 00:26:03;;;;;;;4.10;0.95;;;;;;;;;;2089626;28;20021;-65
2021/05/07 00:27:03;;;;;;;2.05;1.08;;;;;;;;;;2089466;28;20044;-65
2021/05/07 00:28:08;;;;;;;2.97;0.90;;;;;;;;;;2089625;28;20494;-65
2021/05/07 00:29:08;;;;;;;3.88;0.90;;;;;;;;;;2089640;28;20059;-65
2021/05/07 00:30:09;;;;;;;2.05;1.00;;;;;;;;;;2089645;28;20033;-65
2021/05/07 00:31:09;;;;;;;2.78;0.85;;;;;;;;;;2089217;28;20025;-65
2021/05/07 00:32:09;;;;;;;2.45;0.98;;;;;;;;;;2089660;28;20079;-65
2021/05/07 00:33:10;;;;;;;4.32;1.10;;;;;;;;;;2089541;28;20107;-65
2021/05/07 00:34:10;;;;;;;3.75;1.20;;;;;;;;;;2089555;28;20090;-65
2021/05/07 00:35:10;;;;;;;2.72;1.25;;;;;;;;;;2089445;28;20520;-65
2021/05/07 00:36:11;;;;;;;4.47;1.20;;;;;;;;;;2089543;28;20124;-65
2021/05/07 00:37:11;;;;;;;2.42;0.90;;;;;;;;;;2087465;28;20025;-65
2021/05/07 00:38:12;;;;;;;3.33;1.00;;;;;;;;;;2088338;28;20692;-65
2021/05/07 00:39:13;;;;;;;3.28;0.80;;;;;;;;;;2088823;28;20055;-65
2021/05/07 00:40:13;;;;;;;2.33;0.80;;;;;;;;;;2088885;28;20416;-65
2021/05/07 00:41:13;;;;;;;2.35;0.85;;;;;;;;;;2088966;28;20511;-65
2021/05/07 00:42:14;;;;;;;1.85;0.80;;;;;;;;;;2089440;28;20082;-65
2021/05/07 00:43:15;;;;;;;3.10;1.10;;;;;;;;;;2088748;28;20033;-65
2021/05/07 00:44:16;;;;;;;2.60;1.00;;;;;;;;;;2088781;28;20025;-65
2021/05/07 00:45:17;;;;;;;2.10;0.88;;;;;;;;;;2088548;28;20119;-65
2021/05/07 00:46:17;;;;;;;1.30;0.70;;;;;;;;;;2096240;28;20502;-65
2021/05/07 00:47:18;;;;;;;2.20;0.85;;;;;;;;;;2096667;28;20429;-65
2021/05/07 00:48:18;;;;;;;2.80;0.77;;;;;;;;;;2089402;28;20025;-65
2021/05/07 00:49:20;;;;;;;3.35;0.90;;;;;;;;;;2088657;28;20033;-66
2021/05/07 00:50:20;;;;;;;2.22;1.00;;;;;;;;;;2088521;28;20033;-65
2021/05/07 00:51:22;;;;;;;1.90;0.82;;;;;;;;;;2088931;28;20035;-65
2021/05/07 00:52:22;;;;;;;3.58;1.10;;;;;;;;;;2089446;28;20029;-65
2021/05/07 00:53:24;;;;;;;1.52;0.90;;;;;;;;;;2088268;28;20017;-66
2021/05/07 00:54:26;;;;;;;2.85;1.02;;;;;;;;;;2088887;28;20068;-65
2021/05/07 00:55:27;;;;;;;2.35;0.95;;;;;;;;;;2097112;28;20040;-65
2021/05/07 00:56:27;;;;;;;3.47;1.13;;;;;;;;;;2089454;28;20033;-65
2021/05/07 00:57:28;;;;;;;2.75;0.95;;;;;;;;;;2089002;28;20594;-65
2021/05/07 00:58:28;;;;;;;2.13;0.90;;;;;;;;;;2088718;28;20496;-65
2021/05/07 00:59:29;;;;;;;2.55;0.98;;;;;;;;;;2088652;28;20061;-66
2021/05/07 01:00:31;;;;;;;2.03;0.95;;;;;;;;;;2096471;28;20500;-65
2021/05/07 01:01:33;;;;;;;2.97;0.85;;;;;;;;;;2088485;28;20379;-65
2021/05/07 01:02:34;;;;;;;3.67;0.90;;;;;;;;;;2086667;28;20056;-65
2021/05/07 01:03:35;;;;;;;1.52;0.88;;;;;;;;;;2088650;28;20032;-65
2021/05/07 01:04:35;;;;;;;1.75;0.85;;;;;;;;;;2088478;28;20459;-65
2021/05/07 01:05:35;;;;;;;1.77;0.80;;;;;;;;;;2089656;28;20037;-65
2021/05/07 01:06:36;;;;;;;1.63;0.90;;;;;;;;;;2081513;28;20516;-65
2021/05/07 01:07:36;;;;;;;1.67;0.80;;;;;;;;;;2086904;28;20035;-65
2021/05/07 01:08:37;;;;;;;1.65;0.70;;;;;;;;;;2088454;28;20025;-65
2021/05/07 01:09:37;;;;;;;2.00;0.82;;;;;;;;;;2097038;28;20476;-65
2021/05/07 01:10:38;;;;;;;4.00;1.30;;;;;;;;;;2088573;28;20041;-64
2021/05/07 01:11:40;;;;;;;5.70;1.65;;;;;;;;;;2088621;28;20032;-64
2021/05/07 01:12:40;;;;;;;8.85;2.22;;;;;;;;;;2088675;28;20106;-65
2021/05/07 01:13:41;;;;;;;7.25;2.05;;;;;;;;;;2089301;28;20058;-65
2021/05/07 01:15:00;;;;;;;3.92;1.70;;;;;;;;;;2089116;28;20033;-65
2021/05/07 01:16:03;;;;;;;6.55;1.70;;;;;;;;;;2090675;28;20530;-64
2021/05/07 01:17:04;;;;;;;4.63;1.67;;;;;;;;;;2096679;28;20043;-65
2021/05/07 01:18:04;;;;;;;6.38;1.88;;;;;;;;;;2096426;28;20051;-65
2021/05/07 01:19:04;;;;;;;6.47;1.80;;;;;;;;;;2096878;28;20104;-65
2021/05/07 01:20:17;;;;;;;4.25;1.50;;;;;;;;;;2089043;28;20029;-64
2021/05/07 01:21:18;;;;;;;5.32;1.83;;;;;;;;;;2089417;28;20037;-65
2021/05/07 01:22:19;;;;;;;5.82;1.60;;;;;;;;;;2087889;28;20529;-65
2021/05/07 01:23:19;;;;;;;4.95;1.77;;;;;;;;;;2080418;28;20028;-65
2021/05/07 01:24:21;;;;;;;7.68;2.13;;;;;;;;;;2080521;28;20100;-65
2021/05/07 01:25:23;;;;;;;6.00;1.70;;;;;;;;;;2080251;28;20112;-65
2021/05/07 01:26:23;;;;;;;7.40;1.90;;;;;;;;;;2086219;28;20028;-64
2021/05/07 01:27:23;;;;;;;5.07;1.50;;;;;;;;;;2088681;28;20023;-65
2021/05/07 01:28:24;;;;;;;6.15;1.75;;;;;;;;;;2089151;28;20082;-64
2021/05/07 01:29:26;;;;;;;4.60;1.67;;;;;;;;;;2088517;28;20555;-65
2021/05/07 01:30:26;;;;;;;4.60;1.50;;;;;;;;;;2088103;28;20029;-64
2021/05/07 01:31:26;;;;;;;4.75;1.80;;;;;;;;;;2096814;28;20059;-64
2021/05/07 01:32:27;;;;;;;5.00;1.60;;;;;;;;;;2088476;28;20031;-65
2021/05/07 01:33:27;;;;;;;5.63;1.48;;;;;;;;;;2088510;28;20100;-65
2021/05/07 01:34:29;;;;;;;3.95;1.70;;;;;;;;;;2088919;28;20037;-65
2021/05/07 01:35:33;;;;;;;5.60;1.75;;;;;;;;;;2088355;28;20032;-64
2021/05/07 01:36:33;;;;;;;4.45;1.40;;;;;;;;;;2088575;28;20033;-65
2021/05/07 01:37:33;;;;;;;3.67;1.80;;;;;;;;;;2087614;28;20467;-64
2021/05/07 01:38:34;;;;;;;5.05;1.50;;;;;;;;;;2080055;28;20116;-65
2021/05/07 01:39:36;;;;;;;5.32;1.50;;;;;;;;;;2088470;28;20183;-65
2021/05/07 01:40:37;;;;;;;6.40;2.15;;;;;;;;;;2088331;28;20492;-65
2021/05/07 01:41:38;;;;;;;3.08;1.30;;;;;;;;;;2088442;28;20091;-65
2021/05/07 01:42:38;;;;;;;5.10;1.70;;;;;;;;;;2088478;28;20032;-64
2021/05/07 01:43:39;;;;;;;3.85;1.70;;;;;;;;;;2088288;28;20396;-64
2021/05/07 01:44:40;;;;;;;5.40;1.60;;;;;;;;;;2087481;28;20493;-65
2021/05/07 01:45:41;;;;;;;5.35;1.55;;;;;;;;;;2088585;28;20091;-64
2021/05/07 01:46:42;;;;;;;4.93;1.50;;;;;;;;;;2096687;28;20435;-64
2021/05/07 01:47:43;;;;;;;4.70;1.70;;;;;;;;;;2096408;28;20028;-64
2021/05/07 01:48:44;;;;;;;4.05;1.55;;;;;;;;;;2088340;28;20533;-64
2021/05/07 01:49:45;;;;;;;3.47;1.60;;;;;;;;;;2088303;28;20134;-65
2021/05/07 01:50:47;;;;;;;5.20;1.55;;;;;;;;;;2096677;28;20550;-64
2021/05/07 01:51:47;;;;;;;7.97;2.03;;;;;;;;;;2096534;28;20025;-65
2021/05/07 01:52:48;;;;;;;4.75;1.92;;;;;;;;;;2088708;28;20152;-65
2021/05/07 01:53:48;;;;;;;5.72;1.73;;;;;;;;;;2089208;28;20472;-65
2021/05/07 01:54:49;;;;;;;4.03;1.48;;;;;;;;;;2088350;28;20029;-65
2021/05/07 01:55:50;;;;;;;4.80;1.42;;;;;;;;;;2088481;28;20499;-65
2021/05/07 01:57:08;;;;;;;4.30;1.50;;;;;;;;;;2083781;28;20415;-65
2021/05/07 01:58:10;;;;;;;5.07;1.45;;;;;;;;;;2088641;28;20104;-65
2021/05/07 01:59:13;;;;;;;5.15;1.58;;;;;;;;;;2088225;28;20036;-64
2021/05/07 02:00:34;;;;;;;4.93;1.67;;;;;;;;;;2088377;28;20021;-65
2021/05/07 02:01:35;;;;;;;3.97;1.40;;;;;;;;;;2090417;28;20035;-63
2021/05/07 02:02:35;;;;;;;4.55;2.00;;;;;;;;;;2097774;28;20124;-64
2021/05/07 02:03:36;;;;;;;6.97;2.17;;;;;;;;;;2089956;28;20381;-64
2021/05/07 02:04:43;;;;;;;7.45;2.38;;;;;;;;;;2089757;28;20060;-64
2021/05/07 02:05:44;;;;;;;5.60;2.00;;;;;;;;;;2090099;28;20037;-66
2021/05/07 02:06:44;;;;;;;8.55;2.20;;;;;;;;;;2097653;28;20044;-66
2021/05/07 02:07:49;;;;;;;7.30;2.05;;;;;;;;;;2089490;28;20025;-68
2021/05/07 02:08:49;;;;;;;6.43;2.10;;;;;;;;;;2088284;28;20085;-68
2021/05/07 02:09:51;;;;;;;4.63;2.08;;;;;;;;;;2080702;28;20439;-66
2021/05/07 02:10:51;;;;;;;7.07;1.98;;;;;;;;;;2084771;28;20036;-66
2021/05/07 02:11:52;;;;;;;7.40;2.20;;;;;;;;;;2098227;28;20120;-66
2021/05/07 02:12:57;;;;;;;6.95;2.15;;;;;;;;;;2089968;28;20040;-67
2021/05/07 02:13:57;;;;;;;7.72;2.15;;;;;;;;;;2085306;28;20492;-68
2021/05/07 02:14:58;;;;;;;5.90;1.85;;;;;;;;;;2077755;28;20029;-68
2021/05/07 02:15:58;;;;;;;5.22;1.73;;;;;;;;;;2098159;28;20047;-68
2021/05/07 02:17:01;;;;;;;5.63;2.15;;;;;;;;;;2086016;28;20756;-68
2021/05/07 02:18:01;;;;;;;5.57;2.00;;;;;;;;;;2090299;28;20029;-67
2021/05/07 02:19:02;;;;;;;4.10;1.73;;;;;;;;;;2090496;28;20036;-69
2021/05/07 02:20:04;;;;;;;5.32;2.10;;;;;;;;;;2090513;28;20028;-67
2021/05/07 02:21:05;;;;;;;7.75;2.28;;;;;;;;;;2082944;28;20043;-69
2021/05/07 02:22:09;;;;;;;7.28;1.70;;;;;;;;;;2069908;28;20032;-67
2021/05/07 02:23:10;;;;;;;6.10;2.05;;;;;;;;;;2081244;28;20036;-66
2021/05/07 02:24:11;;;;;;;4.32;2.03;;;;;;;;;;2089959;28;20082;-67
2021/05/07 02:25:12;;;;;;;8.45;2.15;;;;;;;;;;2081840;28;20025;-68
2021/05/07 02:26:12;;;;;;;5.13;1.67;;;;;;;;;;2079837;28;20421;-68
2021/05/07 02:27:22;;;;;;;6.45;2.15;;;;;;;;;;2078987;28;20036;-70
2021/05/07 02:28:22;;;;;;;7.80;1.90;;;;;;;;;;2073950;28;20044;-69
2021/05/07 02:29:23;;;;;;;6.28;1.92;;;;;;;;;;2080899;28;20028;-70
2021/05/07 02:30:27;;;;;;;5.88;1.75;;;;;;;;;;2073427;28;20120;-69
2021/05/07 02:31:28;;;;;;;4.75;1.98;;;;;;;;;;2081851;28;20035;-69
2021/05/07 02:32:28;;;;;;;5.72;2.10;;;;;;;;;;2078606;28;20052;-70
2021/05/07 02:33:29;;;;;;;6.97;2.10;;;;;;;;;;2079472;28;20086;-70
2021/05/07 02:34:29;;;;;;;5.90;1.80;;;;;;;;;;2081278;28;20021;-68
2021/05/07 02:35:30;;;;;;;6.90;1.77;;;;;;;;;;2079776;28;20033;-69
2021/05/07 02:36:30;;;;;;;4.75;1.58;;;;;;;;;;2078450;28;20061;-69
2021/05/07 02:37:31;;;;;;;4.53;1.90;;;;;;;;;;2076088;28;20085;-69
2021/05/07 02:38:31;;;;;;;5.68;1.83;;;;;;;;;;2075148;28;20147;-70
2021/05/07 02:39:32;;;;;;;5.68;1.73;;;;;;;;;;2081337;28;20053;-67
2021/05/07 02:40:32;;;;;;;6.88;2.05;;;;;;;;;;2077568;28;20037;-68
2021/05/07 02:41:36;;;;;;;6.05;1.75;;;;;;;;;;2080882;28;20033;-69
2021/05/07 02:42:37;;;;;;;4.07;1.50;;;;;;;;;;2074559;28;20044;-66
2021/05/07 02:43:37;;;;;;;7.32;1.90;;;;;;;;;;2076265;28;20116;-68
2021/05/07 02:44:39;;;;;;;4.60;2.00;;;;;;;;;;2089018;28;20040;-66
2021/05/07 02:45:40;;;;;;;4.35;1.80;;;;;;;;;;2095522;28;20042;-67
2021/05/07 02:46:40;;;;;;;5.53;2.03;;;;;;;;;;2090097;28;20125;-66
2021/05/07 02:47:41;;;;;;;4.47;1.67;;;;;;;;;;2075484;28;20071;-67
2021/05/07 02:48:43;;;;;;;5.32;1.88;;;;;;;;;;2073972;28;20042;-68
2021/05/07 02:49:45;;;;;;;4.43;1.60;;;;;;;;;;2077210;28;20127;-66
2021/05/07 02:50:45;;;;;;;4.68;1.80;;;;;;;;;;2077303;28;20403;-65
2021/05/07 02:51:47;;;;;;;3.30;1.67;;;;;;;;;;2077904;28;20040;-66
2021/05/07 02:52:47;;;;;;;3.88;1.75;;;;;;;;;;2080762;28;20044;-66
2021/05/07 02:53:47;;;;;;;4.80;1.90;;;;;;;;;;2080150;28;20032;-68
2021/05/07 02:54:50;;;;;;;5.03;1.73;;;;;;;;;;2073184;28;20039;-68
2021/05/07 02:55:50;;;;;;;4.13;1.77;;;;;;;;;;2081620;28;20025;-66
2021/05/07 02:56:50;;;;;;;4.30;1.77;;;;;;;;;;2080090;28;20029;-66
2021/05/07 02:57:51;;;;;;;4.35;1.67;;;;;;;;;;2077021;28;20029;-64
2021/05/07 02:58:52;;;;;;;6.60;2.10;;;;;;;;;;2077428;28;20035;-64
2021/05/07 02:59:52;;;;;;;4.15;1.73;;;;;;;;;;2074941;28;20030;-64
2021/05/07 03:00:53;;;;;;;4.22;1.90;;;;;;;;;;2080358;28;20033;-65
2021/05/07 03:01:53;;;;;;;4.75;1.90;;;;;;;;;;2077792;28;20499;-65
2021/05/07 03:02:54;;;;;;;3.95;1.50;;;;;;;;;;2081757;28;20071;-64
2021/05/07 03:03:54;;;;;;;3.85;1.65;;;;;;;;;;2082091;28;20044;-65
2021/05/07 03:04:55;;;;;;;6.95;2.30;;;;;;;;;;2081580;28;20035;-64
2021/05/07 03:05:55;;;;;;;3.75;1.63;;;;;;;;;;2080792;28;20025;-65
2021/05/07 03:06:56;;;;;;;5.68;1.90;;;;;;;;;;2082065;28;20052;-64
2021/05/07 03:07:56;;;;;;;5.25;1.70;;;;;;;;;;2077191;28;20078;-64
2021/05/07 03:08:56;;;;;;;4.88;1.60;;;;;;;;;;2082045;28;20090;-64
2021/05/07 03:09:56;;;;;;;5.30;1.60;;;;;;;;;;2079338;28;20404;-64
2021/05/07 03:10:57;;;;;;;3.70;1.60;;;;;;;;;;2080332;28;20033;-63
2021/05/07 03:11:57;;;;;;;5.20;1.75;;;;;;;;;;2075195;28;20045;-63
2021/05/07 03:12:58;;;;;;;5.35;1.70;;;;;;;;;;2077716;28;20041;-63
2021/05/07 03:13:58;;;;;;;4.35;1.65;;;;;;;;;;2078391;28;20508;-63
2021/05/07 03:14:58;;;;;;;2.80;1.45;;;;;;;;;;2078474;28;20037;-62
2021/05/07 03:15:59;;;;;;;5.43;1.83;;;;;;;;;;2077257;28;20115;-63
2021/05/07 03:16:59;;;;;;;4.53;1.80;;;;;;;;;;2078208;28;20037;-63
2021/05/07 03:18:00;;;;;;;3.55;1.70;;;;;;;;;;2079183;28;20467;-63
2021/05/07 03:19:00;;;;;;;3.53;1.65;;;;;;;;;;2081241;28;20139;-63
2021/05/07 03:20:01;;;;;;;5.78;1.70;;;;;;;;;;2077565;28;20116;-63
2021/05/07 03:21:01;;;;;;;4.00;1.40;;;;;;;;;;2077617;28;20064;-63
2021/05/07 03:22:01;;;;;;;4.40;1.85;;;;;;;;;;2078666;28;20721;-63
2021/05/07 03:23:02;;;;;;;3.63;1.42;;;;;;;;;;2076745;28;20547;-63
2021/05/07 03:24:02;;;;;;;4.43;1.73;;;;;;;;;;2081557;28;20488;-63
2021/05/07 03:25:03;;;;;;;3.78;1.67;;;;;;;;;;2077414;28;20436;-63
2021/05/07 03:26:03;;;;;;;4.50;1.58;;;;;;;;;;2076886;28;20049;-63
2021/05/07 03:27:04;;;;;;;5.90;1.65;;;;;;;;;;2079991;28;20032;-63
2021/05/07 03:28:04;;;;;;;3.25;1.23;;;;;;;;;;2081320;28;20075;-63
2021/05/07 03:29:05;;;;;;;6.78;1.50;;;;;;;;;;2081432;28;20025;-63
2021/05/07 03:30:06;;;;;;;5.35;1.80;;;;;;;;;;2081588;28;21465;-63
2021/05/07 03:31:06;;;;;;;4.97;1.75;;;;;;;;;;2078987;28;20478;-63
2021/05/07 03:32:07;;;;;;;6.30;1.90;;;;;;;;;;2077688;28;20110;-63
2021/05/07 03:33:07;;;;;;;5.82;1.92;;;;;;;;;;2077186;28;20045;-63
2021/05/07 03:34:07;;;;;;;4.50;1.75;;;;;;;;;;2072872;28;20424;-63
2021/05/07 03:35:09;;;;;;;4.32;1.80;;;;;;;;;;2078002;28;20500;-62
2021/05/07 03:36:09;;;;;;;5.13;1.58;;;;;;;;;;2075757;28;20061;-63
2021/05/07 03:37:10;;;;;;;4.57;1.50;;;;;;;;;;2077941;28;20041;-63
2021/05/07 03:38:10;;;;;;;4.03;1.60;;;;;;;;;;2078593;28;20033;-63
2021/05/07 03:39:11;;;;;;;4.80;1.60;;;;;;;;;;2079682;28;20052;-63
2021/05/07 03:40:11;;;;;;;7.53;1.48;;;;;;;;;;2077331;28;20509;-63
2021/05/07 03:41:12;;;;;;;3.47;1.58;;;;;;;;;;2081710;28;20040;-63
2021/05/07 03:42:12;;;;;;;5.20;1.60;;;;;;;;;;2076048;28;20037;-63
2021/05/07 03:43:13;;;;;;;4.38;1.70;;;;;;;;;;2078118;28;20460;-64
2021/05/07 03:44:13;;;;;;;5.95;1.67;;;;;;;;;;2078793;28;21190;-64
2021/05/07 03:45:14;;;;;;;3.63;1.50;;;;;;;;;;2080690;28;20490;-64
2021/05/07 03:46:14;;;;;;;4.63;1.73;;;;;;;;;;2076724;28;20025;-63
2021/05/07 03:47:14;;;;;;;4.72;1.50;;;;;;;;;;2076926;28;20435;-63
2021/05/07 03:48:16;;;;;;;3.25;1.35;;;;;;;;;;2080507;28;20131;-64
2021/05/07 03:49:16;;;;;;;2.42;1.30;;;;;;;;;;2081143;28;20519;-63
2021/05/07 03:50:17;;;;;;;3.70;1.42;;;;;;;;;;2076291;28;20033;-63
2021/05/07 03:51:17;;;;;;;6.22;1.65;;;;;;;;;;2079924;28;20017;-63
2021/05/07 03:52:18;;;;;;;3.75;1.40;;;;;;;;;;2076982;28;20407;-63
2021/05/07 03:53:19;;;;;;;6.05;1.70;;;;;;;;;;2077725;28;20029;-63
2021/05/07 03:54:19;;;;;;;5.30;1.67;;;;;;;;;;2077122;28;20026;-63
2021/05/07 03:55:19;;;;;;;4.15;1.52;;;;;;;;;;2076978;28;20196;-63
2021/05/07 03:56:20;;;;;;;3.33;1.48;;;;;;;;;;2080285;28;20029;-63
2021/05/07 03:57:22;;;;;;;4.63;1.50;;;;;;;;;;2076862;28;20034;-63
2021/05/07 03:58:22;;;;;;;4.05;1.38;;;;;;;;;;2075823;28;20027;-63
2021/05/07 03:59:23;;;;;;;3.17;1.50;;;;;;;;;;2081383;28;20025;-63
2021/05/07 04:00:25;;;;;;;4.60;1.42;;;;;;;;;;2080346;28;20545;-63
2021/05/07 04:01:25;;;;;;;4.47;1.60;;;;;;;;;;2078456;28;20056;-64
2021/05/07 04:02:25;;;;;;;3.15;1.23;;;;;;;;;;2081488;28;20404;-63
2021/05/07 04:03:26;;;;;;;2.85;1.40;;;;;;;;;;2081580;28;20028;-64
2021/05/07 04:04:26;;;;;;;3.40;1.60;;;;;;;;;;2078079;28;20484;-63
2021/05/07 04:05:26;;;;;;;4.47;1.52;;;;;;;;;;2078342;28;20079;-63
2021/05/07 04:06:27;;;;;;;4.97;1.70;;;;;;;;;;2080339;28;20510;-63
2021/05/07 04:07:29;;;;;;;4.05;1.30;;;;;;;;;;2081524;28;20040;-63
2021/05/07 04:08:32;;;;;;;3.47;1.55;;;;;;;;;;2085001;28;20025;-63
2021/05/07 04:09:39;;;;;;;3.03;1.40;;;;;;;;;;2078913;28;20097;-63
2021/05/07 04:10:44;;;;;;;3.38;1.40;;;;;;;;;;2076469;28;20098;-63
2021/05/07 04:13:48;;;;;;;4.00;1.55;;;;;;;;;;2077328;28;20531;-64
2021/05/07 04:14:48;;;;;;;2.80;1.30;;;;;;;;;;2078756;28;20124;-64
2021/05/07 04:15:49;;;;;;;3.67;1.52;;;;;;;;;;2075569;28;20097;-63
2021/05/07 04:16:49;;;;;;;3.17;1.23;;;;;;;;;;2074963;28;20947;-63
2021/05/07 04:17:49;;;;;;;4.53;1.33;;;;;;;;;;2079922;28;20994;-63
2021/05/07 04:18:52;;;;;;;3.05;1.40;;;;;;;;;;2077141;28;20465;-63
2021/05/07 04:19:53;;;;;;;2.35;1.15;;;;;;;;;;2079786;28;21267;-63
2021/05/07 04:20:53;;;;;;;3.53;1.48;;;;;;;;;;2080943;28;20650;-63
2021/05/07 04:21:53;;;;;;;4.03;1.25;;;;;;;;;;2080667;28;20528;-63
2021/05/07 04:22:54;;;;;;;3.45;1.50;;;;;;;;;;2080749;28;20053;-63
2021/05/07 04:23:54;;;;;;;3.25;1.42;;;;;;;;;;2079868;28;20071;-63
2021/05/07 04:24:54;;;;;;;3.95;1.45;;;;;;;;;;2077923;28;20029;-63
2021/05/07 04:25:55;;;;;;;2.53;1.40;;;;;;;;;;2079231;28;20380;-63
2021/05/07 04:26:55;;;;;;;3.72;1.60;;;;;;;;;;2080498;28;20403;-63
2021/05/07 04:27:55;;;;;;;5.22;1.30;;;;;;;;;;2079272;28;20099;-63
2021/05/07 04:28:56;;;;;;;3.38;1.25;;;;;;;;;;2080264;28;20487;-63
2021/05/07 04:29:56;;;;;;;3.65;1.27;;;;;;;;;;2078629;28;20380;-63
2021/05/07 04:30:56;;;;;;;4.15;1.60;;;;;;;;;;2078073;28;20018;-63
2021/05/07 04:31:59;;;;;;;5.00;1.65;;;;;;;;;;2075483;28;20040;-63
2021/05/07 04:32:59;;;;;;;2.58;1.23;;;;;;;;;;2079442;28;20056;-63
2021/05/07 04:33:59;;;;;;;3.13;1.50;;;;;;;;;;2075998;28;20021;-63
2021/05/07 04:35:00;;;;;;;4.40;1.40;;;;;;;;;;2080912;28;20103;-63
2021/05/07 04:36:00;;;;;;;3.35;1.25;;;;;;;;;;2079790;28;20027;-62
2021/05/07 04:37:00;;;;;;;4.68;1.48;;;;;;;;;;2084363;28;20552;-63
2021/05/07 04:38:01;;;;;;;2.85;1.30;;;;;;;;;;2074919;28;20079;-63
2021/05/07 04:39:01;;;;;;;2.40;1.15;;;;;;;;;;2080874;28;20044;-64
2021/05/07 04:40:02;;;;;;;3.40;1.30;;;;;;;;;;2077294;28;20511;-63
2021/05/07 04:41:03;;;;;;;2.92;1.38;;;;;;;;;;2076004;28;20511;-63
2021/05/07 04:42:03;;;;;;;2.28;1.10;;;;;;;;;;2081242;28;20102;-64
2021/05/07 04:43:04;;;;;;;3.08;1.50;;;;;;;;;;2080304;28;20036;-63
2021/05/07 04:44:05;;;;;;;4.15;1.30;;;;;;;;;;2076641;28;20048;-63
2021/05/07 04:45:06;;;;;;;2.92;1.20;;;;;;;;;;2080704;28;20099;-63
2021/05/07 04:46:06;;;;;;;3.92;1.42;;;;;;;;;;2075199;28;20435;-63
2021/05/07 04:47:06;;;;;;;3.15;1.40;;;;;;;;;;2076934;28;20083;-63
2021/05/07 04:48:14;;;;;;;5.30;1.42;;;;;;;;;;2077624;28;20040;-64
2021/05/07 04:49:14;;;;;;;2.90;1.20;;;;;;;;;;2075606;28;20503;-65
2021/05/07 04:50:14;;;;;;;2.47;1.20;;;;;;;;;;2080598;28;20052;-63
2021/05/07 04:51:15;;;;;;;3.20;1.30;;;;;;;;;;2080106;28;20028;-63
2021/05/07 04:52:15;;;;;;;2.97;1.30;;;;;;;;;;2080352;28;20040;-65
2021/05/07 04:53:15;;;;;;;2.88;1.27;;;;;;;;;;2080669;28;20127;-63
2021/05/07 04:54:16;;;;;;;3.38;1.30;;;;;;;;;;2080464;28;20021;-64
2021/05/07 04:55:16;;;;;;;3.42;1.23;;;;;;;;;;2078602;28;20026;-63
2021/05/07 04:56:16;;;;;;;3.20;1.50;;;;;;;;;;2075811;28;20049;-63
2021/05/07 04:57:17;;;;;;;3.50;1.35;;;;;;;;;;2073013;28;20551;-64
2021/05/07 04:58:17;;;;;;;3.00;1.23;;;;;;;;;;2077476;28;20634;-65
2021/05/07 04:59:17;;;;;;;3.47;1.30;;;;;;;;;;2080588;28;20396;-64
2021/05/07 05:00:18;;;;;;;3.13;1.20;;;;;;;;;;2076180;28;20037;-64
2021/05/07 05:01:18;;;;;;;2.67;1.40;;;;;;;;;;2078185;28;20017;-64
2021/05/07 05:02:21;;;;;;;2.42;1.13;;;;;;;;;;2078653;28;20061;-65
2021/05/07 05:03:21;;;;;;;2.83;1.15;;;;;;;;;;2077758;28;20397;-64
2021/05/07 05:04:21;;;;;;;2.55;1.30;;;;;;;;;;2077673;28;20811;-65
2021/05/07 05:05:22;;;;;;;2.53;1.30;;;;;;;;;;2075490;28;20037;-65
2021/05/07 05:06:23;;;;;;;2.78;1.27;;;;;;;;;;2080707;28;20032;-64
2021/05/07 05:07:23;;;;;;;3.88;1.42;;;;;;;;;;2077840;28;20449;-65
2021/05/07 05:08:24;;;;;;;2.75;1.15;;;;;;;;;;2079247;28;20033;-64
2021/05/07 05:09:24;;;;;;;2.47;1.10;;;;;;;;;;2080800;28;20044;-64
2021/05/07 05:10:25;;;;;;;3.60;1.65;;;;;;;;;;2074777;28;20544;-65
2021/05/07 05:11:25;;;;;;;1.77;1.00;;;;;;;;;;2080194;28;20042;-64
2021/05/07 05:12:25;;;;;;;4.55;1.40;;;;;;;;;;2080755;28;20025;-65
2021/05/07 05:13:26;;;;;;;3.13;1.10;;;;;;;;;;2078947;28;20155;-64
2021/05/07 05:14:27;;;;;;;2.95;1.20;;;;;;;;;;2079014;28;20045;-64
2021/05/07 05:15:27;;;;;;;2.63;1.25;;;;;;;;;;2080552;28;20056;-64
2021/05/07 05:16:27;;;;;;;2.38;1.10;;;;;;;;;;2074454;28;20037;-64
2021/05/07 05:17:27;;;;;;;2.47;1.08;;;;;;;;;;2081113;28;20051;-64
2021/05/07 05:18:29;;;;;;;2.60;1.00;;;;;;;;;;2077213;28;20140;-64
2021/05/07 05:19:30;;;;;;;1.60;0.98;;;;;;;;;;2077873;28;20059;-64
2021/05/07 05:20:30;;;;;;;3.38;1.35;;;;;;;;;;2076373;28;20052;-64
2021/05/07 05:21:30;;;;;;;2.47;1.30;;;;;;;;;;2075985;28;20649;-64
2021/05/07 05:22:31;;;;;;;3.42;1.58;;;;;;;;;;2079693;28;20029;-64
2021/05/07 05:23:31;;;;;;;2.15;0.93;;;;;;;;;;2077574;28;20107;-64
2021/05/07 05:24:32;;;;;;;2.55;1.45;;;;;;;;;;2079160;28;20249;-64
2021/05/07 05:25:32;;;;;;;2.35;1.17;;;;;;;;;;2076243;28;20034;-64
2021/05/07 05:26:32;;;;;;;2.10;1.00;;;;;;;;;;2077237;28;20044;-64
2021/05/07 05:27:33;;;;;;;2.03;0.98;;;;;;;;;;2079033;28;20120;-64
2021/05/07 05:28:34;;;;;;;4.45;1.40;;;;;;;;;;2077297;28;20455;-64
2021/05/07 05:29:35;;;;;;;1.83;1.20;;;;;;;;;;2077696;28;20045;-65
2021/05/07 05:30:35;;;;;;;3.08;1.15;;;;;;;;;;2079597;28;20448;-64
2021/05/07 05:31:35;;;;;;;2.42;1.23;;;;;;;;;;2075233;28;20037;-64
2021/05/07 05:32:36;;;;;;;2.95;1.23;;;;;;;;;;2077986;28;20456;-64
2021/05/07 05:33:37;;;;;;;2.35;0.82;;;;;;;;;;2079794;28;20028;-64
2021/05/07 05:34:38;;;;;;;2.72;1.05;;;;;;;;;;2076338;28;20454;-64
2021/05/07 05:35:38;;;;;;;2.50;1.20;;;;;;;;;;2077377;28;20037;-64
2021/05/07 05:36:45;;;;;;;2.17;1.00;;;;;;;;;;2078784;28;20684;-64
2021/05/07 05:37:45;;;;;;;2.42;1.20;;;;;;;;;;2081284;28;20600;-64
2021/05/07 05:38:46;;;;;;;1.83;0.95;;;;;;;;;;2075402;28;20116;-64
2021/05/07 05:39:46;;;;;;;2.13;1.02;;;;;;;;;;2079005;28;20535;-64
2021/05/07 05:40:46;;;;;;;2.15;1.08;;;;;;;;;;2079177;28;20550;-64
2021/05/07 05:41:47;;;;;;;2.38;1.08;;;;;;;;;;2078406;28;20048;-64
2021/05/07 05:42:47;;;;;;;1.95;1.10;;;;;;;;;;2076736;28;20029;-64
2021/05/07 05:43:48;;;;;;;2.35;1.00;;;;;;;;;;2075248;28;20037;-64
2021/05/07 05:44:49;;;;;;;3.17;1.45;;;;;;;;;;2078994;28;20044;-64
2021/05/07 05:45:50;;;;;;;2.58;1.27;;;;;;;;;;2079688;28;20500;-64
2021/05/07 05:46:50;;;;;;;3.00;1.08;;;;;;;;;;2076070;28;20535;-64
2021/05/07 05:48:20;;;;;;;1.98;1.05;;;;;;;;;;2084967;28;20048;-64
2021/05/07 05:49:20;;;;;;;3.10;1.20;;;;;;;;;;2067531;28;20049;-64
2021/05/07 05:50:20;;;;;;;2.75;1.10;;;;;;;;;;2075088;28;20045;-64
2021/05/07 05:51:21;;;;;;;4.60;1.10;;;;;;;;;;2077017;28;20469;-64
2021/05/07 05:52:21;;;;;;;2.33;1.10;;;;;;;;;;2080657;28;20108;-64
2021/05/07 05:53:22;;;;;;;3.58;1.40;;;;;;;;;;2079297;28;20041;-64
2021/05/07 05:54:22;;;;;;;4.32;1.20;;;;;;;;;;2080733;28;20017;-64
2021/05/07 05:55:23;;;;;;;4.00;1.35;;;;;;;;;;2076579;28;20408;-64
2021/05/07 05:56:23;;;;;;;2.38;1.10;;;;;;;;;;2079953;28;20041;-64
2021/05/07 05:57:24;;;;;;;1.67;0.90;;;;;;;;;;2075650;28;20545;-64
2021/05/07 05:58:25;;;;;;;5.13;1.50;;;;;;;;;;2075730;28;20445;-64
2021/05/07 05:59:25;;;;;;;1.85;1.05;;;;;;;;;;2076554;28;20447;-64
2021/05/07 06:00:26;;;;;;;2.95;1.10;;;;;;;;;;2077526;28;20104;-63
2021/05/07 06:01:26;;;;;;;3.00;1.35;;;;;;;;;;2080557;28;20025;-64
2021/05/07 06:02:26;;;;;;;2.10;1.00;;;;;;;;;;2076600;28;20083;-64
2021/05/07 06:03:27;;;;;;;3.13;1.10;;;;;;;;;;2077931;28;20124;-64
2021/05/07 06:04:27;;;;;;;2.92;1.25;;;;;;;;;;2079826;28;20590;-64
2021/05/07 06:05:27;;;;;;;3.90;1.10;;;;;;;;;;2079983;28;20119;-64
2021/05/07 06:06:28;;;;;;;3.15;1.30;;;;;;;;;;2076652;28;20104;-64
2021/05/07 06:07:28;;;;;;;2.30;1.00;;;;;;;;;;2077398;28;20038;-63
2021/05/07 06:08:28;;;;;;;2.63;1.05;;;;;;;;;;2080430;28;20029;-64